createdAt,value
2019-01-30T00:00:50.200Z,69.10
2019-01-30T00:04:55.084Z,68.63
2019-01-30T00:09:00.041Z,68.92
2019-01-30T00:13:04.932Z,68.77
2019-01-30T00:17:09.822Z,68.65
2019-01-30T00:21:14.704Z,69.83
2019-01-30T00:25:19.908Z,69.62
2019-01-30T00:29:24.820Z,69.45
2019-01-30T00:33:29.717Z,69.07
2019-01-30T00:37:34.607Z,69.35
2019-01-30T00:41:39.471Z,69.28
2019-01-30T00:45:44.366Z,68.92
2019-01-30T00:49:49.260Z,69.59
2019-01-30T00:53:54.166Z,69.17
2019-01-30T00:57:59.052Z,68.97
2019-01-30T01:02:03.966Z,69.19
2019-01-30T01:06:08.857Z,69.17
2019-01-30T01:10:15.852Z,69.95
2019-01-30T01:14:20.805Z,69.19
2019-01-30T01:18:25.786Z,69.52
2019-01-30T01:22:30.681Z,69.68
2019-01-30T01:26:35.584Z,68.97
2019-01-30T01:30:40.490Z,69.76
2019-01-30T01:34:45.381Z,68.84
2019-01-30T01:38:50.386Z,70.03
2019-01-30T01:42:55.292Z,70.34
2019-01-30T01:47:00.490Z,70.69
2019-01-30T01:51:05.403Z,69.85
2019-01-30T01:55:10.569Z,70.10
2019-01-30T01:59:15.752Z,71.37
2019-01-30T02:03:20.691Z,70.48
2019-01-30T02:07:25.647Z,70.04
2019-01-30T02:11:30.642Z,70.65
2019-01-30T02:15:35.515Z,71.04
2019-01-30T02:19:40.504Z,72.12
2019-01-30T02:23:45.716Z,72.22
2019-01-30T02:27:50.880Z,72.25
2019-01-30T02:31:56.048Z,71.90
2019-01-30T02:36:00.975Z,71.29
2019-01-30T02:40:08.264Z,71.63
2019-01-30T02:44:13.253Z,71.72
2019-01-30T02:48:18.156Z,72.85
2019-01-30T02:52:23.050Z,72.22
2019-01-30T02:56:27.929Z,72.04
2019-01-30T03:00:33.704Z,73.65
2019-01-30T03:04:38.679Z,72.71
2019-01-30T03:08:43.570Z,72.71
2019-01-30T03:12:48.467Z,72.70
2019-01-30T03:16:53.645Z,74.40
2019-01-30T03:20:58.549Z,73.86
2019-01-30T03:25:03.436Z,74.02
2019-01-30T03:29:08.332Z,74.60
2019-01-30T03:33:13.812Z,73.15
2019-01-30T03:37:18.726Z,73.62
2019-01-30T03:41:23.639Z,74.57
2019-01-30T03:45:28.534Z,74.41
2019-01-30T03:49:33.425Z,73.29
2019-01-30T03:53:38.302Z,73.58
2019-01-30T03:57:43.218Z,74.45
2019-01-30T04:01:48.129Z,73.27
2019-01-30T04:05:53.023Z,73.96
2019-01-30T04:09:58.273Z,73.86
2019-01-30T04:14:03.197Z,74.23
2019-01-30T04:18:08.075Z,75.00
2019-01-30T04:22:12.979Z,74.62
2019-01-30T04:26:17.865Z,74.09
2019-01-30T04:30:24.254Z,73.88
2019-01-30T04:34:29.221Z,73.33
2019-01-30T04:38:34.125Z,73.04
2019-01-30T04:42:38.978Z,73.46
2019-01-30T04:46:43.947Z,73.62
2019-01-30T04:50:49.104Z,73.97
2019-01-30T04:54:54.009Z,73.27
2019-01-30T04:58:58.913Z,73.15
2019-01-30T05:03:03.787Z,72.73
2019-01-30T05:07:08.681Z,72.93
2019-01-30T05:11:13.574Z,72.80
2019-01-30T05:15:19.586Z,73.01
2019-01-30T05:19:24.760Z,74.01
2019-01-30T05:23:29.661Z,73.71
2019-01-30T05:27:34.544Z,74.26
2019-01-30T05:31:39.441Z,75.35
2019-01-30T05:35:44.335Z,75.60
2019-01-30T05:39:49.372Z,74.90
2019-01-30T05:43:54.334Z,75.22
2019-01-30T05:47:59.576Z,75.81
2019-01-30T05:52:04.478Z,75.82
2019-01-30T05:56:09.364Z,76.07
2019-01-30T06:00:32.667Z,75.94
2019-01-30T06:04:37.647Z,75.27
2019-01-30T06:08:42.661Z,73.73
2019-01-30T06:12:47.598Z,74.56
2019-01-30T06:16:52.498Z,74.47
2019-01-30T06:20:57.454Z,74.35
2019-01-30T06:25:02.517Z,74.25
2019-01-30T06:29:07.574Z,74.39
2019-01-30T06:33:12.487Z,73.97
2019-01-30T06:37:18.324Z,73.52
2019-01-30T06:41:23.314Z,73.89
2019-01-30T06:45:28.310Z,74.20
2019-01-30T06:49:34.063Z,74.64
2019-01-30T06:53:39.052Z,74.55
2019-01-30T06:57:43.949Z,74.37
2019-01-30T07:01:48.850Z,74.13
2019-01-30T07:05:54.131Z,74.10
2019-01-30T07:09:59.031Z,74.05
2019-01-30T07:14:03.931Z,73.82
2019-01-30T07:18:08.906Z,73.92
2019-01-30T07:22:13.795Z,73.75
2019-01-30T07:26:18.715Z,73.67
2019-01-30T07:30:29.867Z,73.88
2019-01-30T07:34:34.884Z,73.08
2019-01-30T07:38:39.743Z,74.16
2019-01-30T07:42:44.664Z,74.29
2019-01-30T07:46:49.810Z,73.39
2019-01-30T07:50:54.733Z,73.18
2019-01-30T07:54:59.632Z,72.94
2019-01-30T07:59:04.933Z,72.61
2019-01-30T08:03:10.149Z,72.57
2019-01-30T08:07:15.049Z,72.28
2019-01-30T08:11:20.002Z,71.64
2019-01-30T08:15:25.280Z,71.88
2019-01-30T08:19:30.188Z,71.73
2019-01-30T08:23:35.519Z,71.94
2019-01-30T08:27:40.772Z,71.89
2019-01-30T08:31:45.866Z,71.45
2019-01-30T08:35:50.861Z,71.49
2019-01-30T08:39:55.764Z,71.11
2019-01-30T08:44:00.977Z,71.62
2019-01-30T08:48:05.870Z,71.11
2019-01-30T08:52:10.889Z,70.75
2019-01-30T08:56:15.860Z,71.96
2019-01-30T09:00:22.165Z,74.45
2019-01-30T09:04:27.040Z,77.12
2019-01-30T09:08:31.973Z,78.63
2019-01-30T09:12:37.160Z,79.37
2019-01-30T09:16:42.056Z,80.29
2019-01-30T09:20:46.939Z,80.92
2019-01-30T09:24:51.830Z,80.28
2019-01-30T09:28:56.716Z,80.82
2019-01-30T09:33:01.639Z,80.68
2019-01-30T09:37:06.583Z,80.79
2019-01-30T09:41:11.509Z,80.75
2019-01-30T09:45:17.244Z,80.81
2019-01-30T09:49:22.460Z,81.04
2019-01-30T09:53:27.437Z,81.07
2019-01-30T09:57:32.587Z,81.06
2019-01-30T10:01:37.512Z,81.68
2019-01-30T10:05:42.366Z,81.20
2019-01-30T10:09:47.377Z,81.07
2019-01-30T10:13:52.264Z,80.71
2019-01-30T10:17:57.175Z,81.34
2019-01-30T10:22:02.068Z,80.68
2019-01-30T10:26:06.984Z,80.83
2019-01-30T10:30:16.064Z,80.49
2019-01-30T10:34:20.964Z,80.78
2019-01-30T10:38:25.870Z,80.74
2019-01-30T10:42:30.849Z,80.80
2019-01-30T10:46:35.744Z,80.79
2019-01-30T10:50:40.647Z,80.45
2019-01-30T10:54:45.563Z,80.87
2019-01-30T10:58:50.755Z,80.43
2019-01-30T11:02:55.933Z,80.57
2019-01-30T11:07:00.826Z,80.19
2019-01-30T11:11:07.973Z,80.48
2019-01-30T11:15:15.341Z,79.98
2019-01-30T11:19:20.272Z,80.19
2019-01-30T11:23:25.585Z,80.36
2019-01-30T11:27:30.493Z,80.66
2019-01-30T11:31:35.456Z,80.54
2019-01-30T11:35:40.345Z,80.77
2019-01-30T11:39:45.326Z,80.27
2019-01-30T11:43:50.193Z,80.76
2019-01-30T11:47:55.105Z,80.77
2019-01-30T11:52:00.010Z,81.23
2019-01-30T11:56:04.940Z,80.46
2019-01-30T12:00:15.627Z,81.37
2019-01-30T12:04:20.528Z,80.33
2019-01-30T12:08:25.434Z,80.37
2019-01-30T12:12:30.405Z,80.36
2019-01-30T12:16:35.310Z,80.13
2019-01-30T12:20:40.213Z,80.74
2019-01-30T12:24:45.147Z,81.17
2019-01-30T12:28:50.030Z,81.85
2019-01-30T12:32:55.412Z,81.72
2019-01-30T12:37:00.304Z,81.93
2019-01-30T12:41:05.341Z,81.70
2019-01-30T12:45:16.005Z,82.39
2019-01-30T12:49:21.015Z,81.72
2019-01-30T12:53:25.931Z,82.26
2019-01-30T12:57:30.820Z,82.79
2019-01-30T13:01:35.722Z,83.47
2019-01-30T13:05:40.595Z,84.04
2019-01-30T13:09:45.805Z,84.13
2019-01-30T13:13:50.694Z,84.55
2019-01-30T13:17:55.645Z,84.44
2019-01-30T13:22:00.815Z,84.28
2019-01-30T13:26:05.732Z,84.55
2019-01-30T13:30:16.634Z,84.63
2019-01-30T13:34:21.560Z,84.79
2019-01-30T13:38:26.861Z,84.75
2019-01-30T13:42:32.352Z,84.45
2019-01-30T13:46:37.247Z,84.54
2019-01-30T13:50:42.198Z,84.46
2019-01-30T13:54:47.101Z,84.64
2019-01-30T13:58:52.007Z,84.82
2019-01-30T14:02:56.871Z,84.72
2019-01-30T14:07:01.783Z,84.15
2019-01-30T14:11:06.900Z,84.25
2019-01-30T14:15:15.084Z,84.90
2019-01-30T14:19:20.010Z,85.16
2019-01-30T14:23:24.908Z,84.99
2019-01-30T14:27:30.195Z,84.94
2019-01-30T14:31:35.037Z,85.62
2019-01-30T14:35:45.745Z,85.81
2019-01-30T14:39:51.886Z,85.40
2019-01-30T14:43:57.335Z,85.11
2019-01-30T14:48:02.579Z,84.70
2019-01-30T14:52:07.626Z,85.21
2019-01-30T14:56:12.614Z,85.80
2019-01-30T15:00:24.864Z,85.71
2019-01-30T15:04:29.865Z,85.17
2019-01-30T15:08:34.926Z,85.67
2019-01-30T15:12:40.307Z,86.11
2019-01-30T15:16:45.275Z,86.19
2019-01-30T15:20:50.294Z,86.47
2019-01-30T15:24:55.168Z,86.49
2019-01-30T15:29:00.290Z,86.43
2019-01-30T15:33:05.385Z,86.54
2019-01-30T15:37:10.449Z,86.50
2019-01-30T15:41:15.421Z,86.59
2019-01-30T15:45:21.740Z,86.30
2019-01-30T15:49:26.620Z,86.03
2019-01-30T15:53:31.614Z,86.08
2019-01-30T15:57:36.546Z,85.99
2019-01-30T16:01:45.040Z,85.84
2019-01-30T16:05:49.998Z,86.12
2019-01-30T16:09:54.954Z,85.92
2019-01-30T16:14:00.259Z,85.96
2019-01-30T16:18:05.303Z,85.66
2019-01-30T16:22:10.336Z,85.97
2019-01-30T16:26:15.439Z,86.16
2019-01-30T16:30:22.210Z,86.46
2019-01-30T16:34:27.140Z,86.38
2019-01-30T16:38:34.294Z,86.62
2019-01-30T16:42:39.534Z,86.41
2019-01-30T16:46:44.444Z,86.68
2019-01-30T16:50:49.348Z,86.60
2019-01-30T16:54:54.341Z,86.75
2019-01-30T16:58:59.260Z,86.83
2019-01-30T17:03:05.518Z,86.97
2019-01-30T17:07:10.986Z,87.12
2019-01-30T17:11:15.937Z,87.17
2019-01-30T17:15:24.169Z,86.94
2019-01-30T17:19:29.347Z,86.87
2019-01-30T17:23:34.582Z,86.76
2019-01-30T17:27:39.557Z,86.63
2019-01-30T17:31:44.550Z,87.06
2019-01-30T17:35:49.490Z,87.13
2019-01-30T17:39:54.406Z,87.25
2019-01-30T17:43:59.420Z,87.11
2019-01-30T17:48:04.491Z,86.86
2019-01-30T17:52:09.434Z,87.07
2019-01-30T17:56:14.343Z,87.11
2019-01-30T18:00:53.663Z,87.22
2019-01-30T18:04:59.299Z,87.21
2019-01-30T18:09:06.642Z,87.37
2019-01-30T18:13:11.691Z,87.31
2019-01-30T18:17:16.757Z,87.42
2019-01-30T18:21:21.806Z,87.28
2019-01-30T18:25:26.764Z,87.27
2019-01-30T18:29:31.713Z,87.32
2019-01-30T18:33:36.643Z,87.35
2019-01-30T18:37:41.898Z,87.41
2019-01-30T18:41:47.188Z,87.46
2019-01-30T18:45:52.163Z,87.45
2019-01-30T18:49:57.096Z,87.34
2019-01-30T18:54:02.500Z,87.46
2019-01-30T18:58:07.406Z,87.41
2019-01-30T19:02:12.366Z,87.57
2019-01-30T19:06:17.326Z,87.62
2019-01-30T19:10:22.430Z,87.20
2019-01-30T19:14:27.475Z,86.99
2019-01-30T19:18:32.453Z,86.99
2019-01-30T19:22:37.673Z,86.42
2019-01-30T19:26:42.626Z,86.52
2019-01-30T19:30:47.944Z,86.57
2019-01-30T19:34:52.823Z,86.25
2019-01-30T19:38:57.838Z,86.22
2019-01-30T19:43:02.732Z,85.96
2019-01-30T19:47:08.020Z,85.72
2019-01-30T19:51:12.988Z,85.64
2019-01-30T19:55:17.942Z,86.17
2019-01-30T19:59:22.873Z,86.34
2019-01-30T20:03:32.397Z,86.10
2019-01-30T20:07:37.364Z,86.46
2019-01-30T20:11:42.417Z,86.90
2019-01-30T20:15:47.733Z,86.51
2019-01-30T20:19:52.708Z,86.36
2019-01-30T20:23:57.656Z,86.60
2019-01-30T20:28:02.632Z,86.63
2019-01-30T20:32:08.022Z,86.56
2019-01-30T20:36:13.545Z,86.96
2019-01-30T20:40:28.675Z,87.16
2019-01-30T20:44:33.687Z,87.32
2019-01-30T20:48:45.928Z,87.55
2019-01-30T20:52:45.662Z,87.72
2019-01-30T20:56:50.788Z,87.74
2019-01-30T21:00:55.679Z,87.71
2019-01-30T21:05:01.060Z,87.69
2019-01-30T21:09:09.383Z,87.70
2019-01-30T21:13:14.368Z,87.60
2019-01-30T21:17:19.296Z,87.56
2019-01-30T21:21:24.531Z,87.56
2019-01-30T21:25:29.873Z,87.45
2019-01-30T21:29:34.805Z,87.45
2019-01-30T21:33:39.754Z,87.31
2019-01-30T21:37:48.937Z,87.20
2019-01-30T21:41:51.620Z,87.23
2019-01-30T21:45:56.557Z,87.17
2019-01-30T21:50:01.487Z,87.09
2019-01-30T21:54:06.455Z,87.08
2019-01-30T21:58:11.365Z,87.03
2019-01-30T22:02:16.268Z,87.09
2019-01-30T22:06:21.286Z,87.01
2019-01-30T22:10:28.482Z,87.00
2019-01-30T22:14:33.386Z,87.00
2019-01-30T22:18:38.276Z,86.96
2019-01-30T22:22:43.211Z,86.70
2019-01-30T22:26:48.120Z,86.80
2019-01-30T22:30:53.010Z,86.24
2019-01-30T22:34:57.918Z,86.36
2019-01-30T22:39:04.471Z,86.45
2019-01-30T22:43:09.457Z,86.40
2019-01-30T22:47:14.410Z,86.38
2019-01-30T22:51:19.292Z,86.25
2019-01-30T22:55:24.780Z,86.22
2019-01-30T22:59:29.705Z,86.38
2019-01-30T23:05:05.472Z,86.18
2019-01-30T23:09:51.208Z,86.18
2019-01-30T23:14:26.498Z,86.24
2019-01-30T23:19:02.872Z,86.51
2019-01-30T23:24:16.241Z,86.59
2019-01-30T23:29:15.781Z,86.68
2019-01-30T23:33:38.926Z,86.70
2019-01-30T23:38:18.892Z,86.74
2019-01-30T23:42:55.397Z,86.75
2019-01-30T23:47:58.234Z,86.77
2019-01-30T23:53:23.945Z,86.72
2019-01-30T23:58:34.287Z,86.60
